Airfield :
LOGIN :

Register | Disclaimer

   EN    FR    IT 

 










Legend :    VFR   Marginal VFR   IFR   Intensive IFR   Very Intensive IFR
Visi :
Ceiling :
>= 8 km
>= 3000ft
5 to 8 km
1000 to 3000 ft
1500m to 5 km
500 to 1000 ft
800 to 1500m
200 to 500 ft
< 800m
< 200 ft
Symbols :   Thunderstorms  Fog  Heavy snow  Heavy precipitations  Wind > 20 kt
SIGMETs :     Misc.  Thunderstorms  Icing  Turbulence  Mountain Waves  Volcanic Ashes







- Airport Elevation : 72 ft
- IATA code : UDE


EHVK - Volkel Airbase

CURRENT METAR :
  • 231455Z AUTO 20014KT 170V240 9999 -DZ OVC022 10/06 Q1018 WHT 20014KT 9999 BKN025 TEMPO 3000 RADZ FEW010 SCT012 BKN020

EXPIRED METARs :
  • 231435Z AUTO 19012KT 170V240 9999 -DZ BKN023 OVC027 09/06 Q1018 WHT 20014KT 9999 BKN025 TEMPO 3000 RADZ FEW010 SCT012 BKN020
  • 231425Z AUTO 19012KT 160V240 9999 -RADZ BKN023 OVC027 09/06 Q1018 RERA REDZ WHT 20014KT 9999 SCT025 BKN045 TEMPO 4500 -RA FEW015 SCT020
  • 231413Z AUTO 20014KT 160V230 6000 -RA FEW022 BKN030 OVC034 09/06 Q1018 WHT 20014KT 9999 SCT025 BKN045 TEMPO 4500 -RA FEW015 SCT020
  • 231355Z AUTO 20015KT 170V240 6000 DZRA FEW020 BKN024 BKN028 09/06 Q1018 WHT 20014KT 9999 SCT025 BKN045 TEMPO 4500 -RA FEW015 SCT020
  • 231334Z AUTO 20015KT 160V240 9999 FEW025 OVC037 10/05 Q1019 BLU 20014KT 9999 SCT025 BKN045
  • 231325Z AUTO 20014KT 160V240 9999 FEW025 BKN036 OVC046 10/05 Q1019 BLU 20012KT 9999 BKN038 BECMG SCT025 BKN045
  • 231302Z AUTO 20012KT 160V240 9999 FEW026/// SCT044/// OVC057/// 10/05 Q1019 BLU 20012KT 9999 BKN038 BECMG SCT025 BKN045 RMK TS INFO NOT AVBL
  • 231255Z AUTO 20012KT 160V250 9999 BKN050 OVC056 10/05 Q1019 BLU 20012KT 9999 BKN038 BECMG SCT025 BKN045 RMK TS INFO NOT AVBL
  • 231225Z AUTO 20013KT 150V240 9999 OVC190 10/05 Q1020 BLU 20010KT 9999 BKN038

TAF TAF EHVK
Valid from the 23 at 10:00 until the 23 at 22:00 UTC


230930Z 2310/2322 21010KT 9999 OVC030
PROB30
TEMPO 2310/2314 FEW015 BKN020
BECMG 2314/2316 -RA SCT007 OVC010
TEMPO 2316/2322 22012G22KT 4500 RADZ SCT004 OVC006
No reported NOTAMs for that airfield.



MET'MAP, your aeronautical weather chart ! - Copyright ORBIFLY December 2007 - Disclaimer

ORBIFLY MET'MAP TEAM :

Programming & Development : Alexandra Zaïnal
Concept & Development : Baudouin d'Aumeries
Co-Development & Prog : Marc-Olivier Méhu
Technical & hardware support : Manuel Goepfert

Contact : metmap@orbifly.com




SOURCES & CREDITS :

   NOAA